sensor_id;sensor_type;location;lat;lon;timestamp;pressure;altitude;pressure_sealevel;temperature;humidity
56270;BME280;42176;43.240;27.880;2023-02-14T00:00:16;101646.56;;;-0.01;100.00
56270;BME280;42176;43.240;27.880;2023-02-14T00:02:42;101643.13;;;0.20;100.00
56270;BME280;42176;43.240;27.880;2023-02-14T00:05:08;101646.28;;;-0.45;100.00
56270;BME280;42176;43.240;27.880;2023-02-14T00:07:33;101638.25;;;-0.68;100.00
56270;BME280;42176;43.240;27.880;2023-02-14T00:09:59;101639.31;;;-0.64;100.00
56270;BME280;42176;43.240;27.880;2023-02-14T00:12:24;101633.94;;;0.08;100.00
56270;BME280;42176;43.240;27.880;2023-02-14T00:14:49;101634.53;;;-0.55;100.00
56270;BME280;42176;43.240;27.880;2023-02-14T00:17:33;101636.34;;;-0.72;100.00
56270;BME280;42176;43.240;27.880;2023-02-14T00:19:59;101635.59;;;-0.69;100.00
56270;BME280;42176;43.240;27.880;2023-02-14T00:22:24;101628.59;;;-0.70;100.00
56270;BME280;42176;43.240;27.880;2023-02-14T00:24:50;101630.50;;;-0.10;100.00
56270;BME280;42176;43.240;27.880;2023-02-14T00:27:15;101630.38;;;-0.69;100.00
56270;BME280;42176;43.240;27.880;2023-02-14T00:29:41;101627.59;;;-1.09;100.00
56270;BME280;42176;43.240;27.880;2023-02-14T00:32:06;101623.16;;;-0.93;100.00
56270;BME280;42176;43.240;27.880;2023-02-14T00:34:31;101624.19;;;-0.71;100.00
56270;BME280;42176;43.240;27.880;2023-02-14T00:36:57;101619.53;;;-0.79;100.00
56270;BME280;42176;43.240;27.880;2023-02-14T00:39:24;101617.41;;;-1.22;100.00
56270;BME280;42176;43.240;27.880;2023-02-14T00:41:50;101609.47;;;-1.25;100.00
56270;BME280;42176;43.240;27.880;2023-02-14T00:44:16;101616.09;;;-1.14;100.00
56270;BME280;42176;43.240;27.880;2023-02-14T00:46:41;101602.53;;;-1.07;100.00
56270;BME280;42176;43.240;27.880;2023-02-14T00:49:07;101594.94;;;-0.66;100.00
56270;BME280;42176;43.240;27.880;2023-02-14T00:51:33;101591.31;;;-1.05;100.00
56270;BME280;42176;43.240;27.880;2023-02-14T00:53:58;101560.97;;;-1.76;100.00
56270;BME280;42176;43.240;27.880;2023-02-14T00:56:24;101580.78;;;-1.61;100.00
56270;BME280;42176;43.240;27.880;2023-02-14T00:58:49;101580.75;;;-1.45;100.00
56270;BME280;42176;43.240;27.880;2023-02-14T01:01:15;101573.69;;;-0.75;100.00
56270;BME280;42176;43.240;27.880;2023-02-14T01:03:41;101574.13;;;-1.56;100.00
56270;BME280;42176;43.240;27.880;2023-02-14T01:06:07;101573.34;;;-1.72;100.00
56270;BME280;42176;43.240;27.880;2023-02-14T01:08:33;101570.34;;;-1.45;100.00
56270;BME280;42176;43.240;27.880;2023-02-14T01:11:13;101574.00;;;-1.05;100.00
56270;BME280;42176;43.240;27.880;2023-02-14T01:13:40;101553.03;;;-1.26;100.00
56270;BME280;42176;43.240;27.880;2023-02-14T01:16:08;101555.22;;;-1.52;100.00
56270;BME280;42176;43.240;27.880;2023-02-14T01:18:34;101545.56;;;-1.36;100.00
56270;BME280;42176;43.240;27.880;2023-02-14T01:21:15;101547.03;;;-1.25;100.00
56270;BME280;42176;43.240;27.880;2023-02-14T01:23:41;101550.06;;;-1.16;100.00
56270;BME280;42176;43.240;27.880;2023-02-14T01:26:07;101537.47;;;-1.07;100.00
56270;BME280;42176;43.240;27.880;2023-02-14T01:28:34;101539.06;;;-0.72;100.00
56270;BME280;42176;43.240;27.880;2023-02-14T01:31:11;101536.38;;;-1.48;100.00
56270;BME280;42176;43.240;27.880;2023-02-14T01:33:38;101538.06;;;-1.83;100.00
56270;BME280;42176;43.240;27.880;2023-02-14T01:36:04;101539.41;;;-1.57;100.00
56270;BME280;42176;43.240;27.880;2023-02-14T01:38:29;101532.34;;;-1.41;100.00
56270;BME280;42176;43.240;27.880;2023-02-14T01:40:55;101533.47;;;-0.82;100.00
56270;BME280;42176;43.240;27.880;2023-02-14T01:43:20;101532.50;;;-1.56;100.00
56270;BME280;42176;43.240;27.880;2023-02-14T01:45:46;101529.72;;;-1.94;100.00
56270;BME280;42176;43.240;27.880;2023-02-14T01:48:11;101528.44;;;-1.67;100.00
56270;BME280;42176;43.240;27.880;2023-02-14T01:50:40;101533.16;;;-0.88;100.00
56270;BME280;42176;43.240;27.880;2023-02-14T01:53:11;101528.06;;;-1.41;100.00
56270;BME280;42176;43.240;27.880;2023-02-14T01:55:42;101528.34;;;-1.87;100.00
56270;BME280;42176;43.240;27.880;2023-02-14T01:58:12;101530.56;;;-1.60;100.00
56270;BME280;42176;43.240;27.880;2023-02-14T02:00:39;101535.16;;;-1.36;100.00
56270;BME280;42176;43.240;27.880;2023-02-14T02:03:31;101521.03;;;-1.05;100.00
56270;BME280;42176;43.240;27.880;2023-02-14T02:06:13;101525.03;;;-1.66;100.00
56270;BME280;42176;43.240;27.880;2023-02-14T02:08:47;101512.13;;;-1.65;100.00
56270;BME280;42176;43.240;27.880;2023-02-14T02:11:14;101496.16;;;-1.55;100.00
56270;BME280;42176;43.240;27.880;2023-02-14T02:13:40;101500.53;;;-1.35;100.00
56270;BME280;42176;43.240;27.880;2023-02-14T02:24:51;101475.28;;;-1.56;100.00
56270;BME280;42176;43.240;27.880;2023-02-14T02:38:30;101470.94;;;-1.38;100.00
56270;BME280;42176;43.240;27.880;2023-02-14T02:46:39;101457.59;;;-0.89;100.00
56270;BME280;42176;43.240;27.880;2023-02-14T02:55:13;101457.63;;;-1.98;100.00
56270;BME280;42176;43.240;27.880;2023-02-14T02:57:41;101475.78;;;-1.81;100.00
56270;BME280;42176;43.240;27.880;2023-02-14T03:00:09;101460.84;;;-1.67;100.00
56270;BME280;42176;43.240;27.880;2023-02-14T03:02:38;101447.28;;;-1.06;100.00
56270;BME280;42176;43.240;27.880;2023-02-14T03:05:27;101448.53;;;-1.72;100.00
56270;BME280;42176;43.240;27.880;2023-02-14T03:07:53;101437.59;;;-2.17;100.00
56270;BME280;42176;43.240;27.880;2023-02-14T03:10:30;101441.94;;;-2.00;100.00
56270;BME280;42176;43.240;27.880;2023-02-14T03:13:12;101441.72;;;-1.86;100.00
56270;BME280;42176;43.240;27.880;2023-02-14T03:16:31;101431.41;;;-1.30;100.00
56270;BME280;42176;43.240;27.880;2023-02-14T03:21:46;101416.66;;;-1.12;100.00
56270;BME280;42176;43.240;27.880;2023-02-14T03:24:52;101416.56;;;0.06;100.00
56270;BME280;42176;43.240;27.880;2023-02-14T03:27:26;101416.19;;;-2.30;100.00
56270;BME280;42176;43.240;27.880;2023-02-14T03:30:08;101412.25;;;-2.05;100.00
56270;BME280;42176;43.240;27.880;2023-02-14T03:32:47;101414.03;;;-1.67;100.00
56270;BME280;42176;43.240;27.880;2023-02-14T03:35:16;101350.69;;;-2.58;100.00
56270;BME280;42176;43.240;27.880;2023-02-14T03:37:52;101406.16;;;-2.40;100.00
56270;BME280;42176;43.240;27.880;2023-02-14T03:40:29;101399.78;;;-2.28;100.00
56270;BME280;42176;43.240;27.880;2023-02-14T03:43:16;101402.00;;;-1.65;100.00
56270;BME280;42176;43.240;27.880;2023-02-14T03:45:51;101385.19;;;-2.26;100.00
56270;BME280;42176;43.240;27.880;2023-02-14T03:48:20;101380.22;;;-2.56;100.00
56270;BME280;42176;43.240;27.880;2023-02-14T03:50:49;101392.16;;;-2.25;100.00
56270;BME280;42176;43.240;27.880;2023-02-14T03:53:20;101391.16;;;-2.11;100.00
56270;BME280;42176;43.240;27.880;2023-02-14T03:56:09;101391.41;;;-1.88;100.00
56270;BME280;42176;43.240;27.880;2023-02-14T03:58:39;101374.69;;;-1.57;100.00
56270;BME280;42176;43.240;27.880;2023-02-14T04:01:11;101376.75;;;-2.22;100.00
56270;BME280;42176;43.240;27.880;2023-02-14T04:03:39;101377.78;;;-2.53;100.00
56270;BME280;42176;43.240;27.880;2023-02-14T04:06:06;101377.25;;;-2.46;100.00
56270;BME280;42176;43.240;27.880;2023-02-14T04:08:32;101364.59;;;-1.87;100.00
56270;BME280;42176;43.240;27.880;2023-02-14T04:10:59;101385.00;;;-2.48;100.00
56270;BME280;42176;43.240;27.880;2023-02-14T04:13:26;101383.00;;;-3.03;100.00
56270;BME280;42176;43.240;27.880;2023-02-14T04:15:51;101390.78;;;-2.86;100.00
56270;BME280;42176;43.240;27.880;2023-02-14T04:18:17;101396.84;;;-2.69;100.00
56270;BME280;42176;43.240;27.880;2023-02-14T04:21:01;101375.63;;;-2.09;100.00
56270;BME280;42176;43.240;27.880;2023-02-14T04:23:26;101397.38;;;-2.42;100.00
56270;BME280;42176;43.240;27.880;2023-02-14T04:25:51;101385.81;;;-2.65;100.00
56270;BME280;42176;43.240;27.880;2023-02-14T04:28:17;101410.53;;;-2.39;100.00
56270;BME280;42176;43.240;27.880;2023-02-14T04:30:42;101406.09;;;-1.89;100.00
56270;BME280;42176;43.240;27.880;2023-02-14T04:33:08;101402.59;;;-2.58;100.00
56270;BME280;42176;43.240;27.880;2023-02-14T04:35:35;101405.56;;;-2.85;100.00
56270;BME280;42176;43.240;27.880;2023-02-14T04:38:01;101415.81;;;-2.54;100.00
56270;BME280;42176;43.240;27.880;2023-02-14T04:40:27;101403.97;;;-1.79;100.00
56270;BME280;42176;43.240;27.880;2023-02-14T04:42:52;101398.28;;;-2.07;100.00
56270;BME280;42176;43.240;27.880;2023-02-14T04:45:18;101403.66;;;-2.71;100.00
56270;BME280;42176;43.240;27.880;2023-02-14T04:47:43;101398.56;;;-2.70;100.00
56270;BME280;42176;43.240;27.880;2023-02-14T04:50:09;101407.81;;;-2.58;100.00
56270;BME280;42176;43.240;27.880;2023-02-14T04:52:34;101399.91;;;-1.91;100.00
56270;BME280;42176;43.240;27.880;2023-02-14T04:55:00;101403.41;;;-2.43;100.00
56270;BME280;42176;43.240;27.880;2023-02-14T04:57:25;101404.16;;;-2.79;100.00
56270;BME280;42176;43.240;27.880;2023-02-14T04:59:51;101408.28;;;-2.49;100.00
56270;BME280;42176;43.240;27.880;2023-02-14T05:02:16;101404.53;;;-2.38;100.00
56270;BME280;42176;43.240;27.880;2023-02-14T05:04:41;101401.84;;;-1.69;100.00
56270;BME280;42176;43.240;27.880;2023-02-14T05:07:07;101398.63;;;-2.17;100.00
56270;BME280;42176;43.240;27.880;2023-02-14T05:09:32;101400.38;;;-2.34;100.00
56270;BME280;42176;43.240;27.880;2023-02-14T05:11:58;101394.13;;;-2.03;100.00
56270;BME280;42176;43.240;27.880;2023-02-14T05:14:23;101404.94;;;-1.40;100.00
56270;BME280;42176;43.240;27.880;2023-02-14T05:16:49;101401.16;;;-1.46;100.00
56270;BME280;42176;43.240;27.880;2023-02-14T05:19:14;101407.97;;;-1.68;100.00
56270;BME280;42176;43.240;27.880;2023-02-14T05:21:40;101421.00;;;-1.30;100.00
56270;BME280;42176;43.240;27.880;2023-02-14T05:24:05;101418.72;;;-1.04;100.00
56270;BME280;42176;43.240;27.880;2023-02-14T05:26:31;101416.09;;;-0.46;100.00
56270;BME280;42176;43.240;27.880;2023-02-14T05:28:57;101414.28;;;-1.07;100.00
56270;BME280;42176;43.240;27.880;2023-02-14T05:31:22;101412.28;;;-0.93;100.00
56270;BME280;42176;43.240;27.880;2023-02-14T05:33:48;101418.31;;;-0.74;100.00
56270;BME280;42176;43.240;27.880;2023-02-14T05:36:13;101400.31;;;-0.29;100.00
56270;BME280;42176;43.240;27.880;2023-02-14T05:38:39;101411.47;;;-1.12;100.00
56270;BME280;42176;43.240;27.880;2023-02-14T05:41:04;101414.69;;;-1.17;100.00
56270;BME280;42176;43.240;27.880;2023-02-14T05:43:30;101428.19;;;-0.87;100.00
56270;BME280;42176;43.240;27.880;2023-02-14T05:45:56;101402.41;;;-0.41;100.00
56270;BME280;42176;43.240;27.880;2023-02-14T05:48:22;101413.66;;;-0.62;100.00
56270;BME280;42176;43.240;27.880;2023-02-14T05:50:47;101409.06;;;-0.68;100.00
56270;BME280;42176;43.240;27.880;2023-02-14T05:53:13;101393.75;;;0.67;100.00
56270;BME280;42176;43.240;27.880;2023-02-14T05:55:39;101401.44;;;2.10;100.00
56270;BME280;42176;43.240;27.880;2023-02-14T05:58:05;101403.94;;;3.21;96.18
56270;BME280;42176;43.240;27.880;2023-02-14T06:00:31;101389.97;;;4.23;86.31
56270;BME280;42176;43.240;27.880;2023-02-14T06:02:56;101377.84;;;5.08;78.30
56270;BME280;42176;43.240;27.880;2023-02-14T06:05:21;101379.00;;;6.17;71.50
56270;BME280;42176;43.240;27.880;2023-02-14T06:07:47;101343.31;;;3.74;74.09
56270;BME280;42176;43.240;27.880;2023-02-14T06:10:19;101370.53;;;3.78;83.28
56270;BME280;42176;43.240;27.880;2023-02-14T06:12:47;101390.53;;;5.27;74.60
56270;BME280;42176;43.240;27.880;2023-02-14T06:15:13;101386.22;;;5.80;68.17
56270;BME280;42176;43.240;27.880;2023-02-14T06:17:38;101376.28;;;4.36;74.98
56270;BME280;42176;43.240;27.880;2023-02-14T06:20:04;101374.59;;;6.16;69.37
56270;BME280;42176;43.240;27.880;2023-02-14T06:22:30;101354.97;;;6.54;64.49
56270;BME280;42176;43.240;27.880;2023-02-14T06:24:55;101380.06;;;6.92;62.65
56270;BME280;42176;43.240;27.880;2023-02-14T06:27:21;101379.72;;;5.12;67.02
56270;BME280;42176;43.240;27.880;2023-02-14T06:29:46;101379.16;;;4.47;75.44
56270;BME280;42176;43.240;27.880;2023-02-14T06:32:12;101380.97;;;5.80;70.53
56270;BME280;42176;43.240;27.880;2023-02-14T06:34:37;101380.03;;;6.89;63.34
56270;BME280;42176;43.240;27.880;2023-02-14T06:37:05;101370.06;;;6.67;60.68
56270;BME280;42176;43.240;27.880;2023-02-14T06:39:30;101366.03;;;4.46;72.26
56270;BME280;42176;43.240;27.880;2023-02-14T06:41:56;101376.13;;;5.53;68.60
56270;BME280;42176;43.240;27.880;2023-02-14T06:44:21;101366.88;;;4.86;68.69
56270;BME280;42176;43.240;27.880;2023-02-14T06:46:47;101368.69;;;4.10;75.86
56270;BME280;42176;43.240;27.880;2023-02-14T06:49:12;101359.16;;;5.37;70.96
56270;BME280;42176;43.240;27.880;2023-02-14T06:51:38;101360.66;;;6.85;63.10
56270;BME280;42176;43.240;27.880;2023-02-14T06:54:03;101346.81;;;7.89;57.59
56270;BME280;42176;43.240;27.880;2023-02-14T06:56:30;101347.59;;;9.24;52.74
56270;BME280;42176;43.240;27.880;2023-02-14T06:58:55;101355.50;;;7.74;54.64
56270;BME280;42176;43.240;27.880;2023-02-14T07:01:21;101355.63;;;6.39;63.26
56270;BME280;42176;43.240;27.880;2023-02-14T07:03:46;101356.22;;;8.77;55.24
56270;BME280;42176;43.240;27.880;2023-02-14T07:06:11;101356.53;;;9.88;50.94
56270;BME280;42176;43.240;27.880;2023-02-14T07:08:37;101352.84;;;9.03;50.67
56270;BME280;42176;43.240;27.880;2023-02-14T07:11:02;101347.41;;;8.68;53.89
56270;BME280;42176;43.240;27.880;2023-02-14T07:13:28;101354.78;;;10.01;49.56
56270;BME280;42176;43.240;27.880;2023-02-14T07:15:53;101356.38;;;10.95;47.51
56270;BME280;42176;43.240;27.880;2023-02-14T07:18:19;101347.28;;;11.41;45.22
56270;BME280;42176;43.240;27.880;2023-02-14T07:20:44;101362.06;;;7.32;54.06
56270;BME280;42176;43.240;27.880;2023-02-14T07:23:10;101354.91;;;7.19;58.81
56270;BME280;42176;43.240;27.880;2023-02-14T07:25:36;101356.34;;;9.05;52.19
56270;BME280;42176;43.240;27.880;2023-02-14T07:28:01;101352.34;;;6.55;59.26
56270;BME280;42176;43.240;27.880;2023-02-14T07:30:29;101350.28;;;7.84;58.75
56270;BME280;42176;43.240;27.880;2023-02-14T07:32:56;101346.84;;;10.09;50.88
56270;BME280;42176;43.240;27.880;2023-02-14T07:35:21;101346.94;;;11.91;46.72
56270;BME280;42176;43.240;27.880;2023-02-14T07:37:49;101350.13;;;13.13;42.45
56270;BME280;42176;43.240;27.880;2023-02-14T07:40:15;101345.88;;;14.19;40.26
56270;BME280;42176;43.240;27.880;2023-02-14T07:42:41;101351.47;;;15.00;38.38
56270;BME280;42176;43.240;27.880;2023-02-14T07:45:06;101358.25;;;15.17;36.71
56270;BME280;42176;43.240;27.880;2023-02-14T07:47:32;101348.47;;;14.23;37.37
56270;BME280;42176;43.240;27.880;2023-02-14T07:49:57;101346.66;;;13.72;38.24
56270;BME280;42176;43.240;27.880;2023-02-14T07:52:23;101341.53;;;14.14;37.98
56270;BME280;42176;43.240;27.880;2023-02-14T07:54:48;101329.06;;;13.62;38.41
56270;BME280;42176;43.240;27.880;2023-02-14T07:57:16;101340.03;;;11.68;41.55
56270;BME280;42176;43.240;27.880;2023-02-14T07:59:41;101328.25;;;9.41;48.09
56270;BME280;42176;43.240;27.880;2023-02-14T08:02:09;101337.03;;;10.67;45.10
56270;BME280;42176;43.240;27.880;2023-02-14T08:04:34;101332.69;;;9.70;46.23
56270;BME280;42176;43.240;27.880;2023-02-14T08:07:00;101336.97;;;9.09;49.57
56270;BME280;42176;43.240;27.880;2023-02-14T08:09:25;101329.09;;;10.53;45.82
56270;BME280;42176;43.240;27.880;2023-02-14T08:11:55;101333.44;;;10.87;44.29
56270;BME280;42176;43.240;27.880;2023-02-14T08:14:41;101323.72;;;8.95;49.40
56270;BME280;42176;43.240;27.880;2023-02-14T08:17:06;101315.91;;;10.39;45.68
56270;BME280;42176;43.240;27.880;2023-02-14T08:19:35;101302.28;;;11.21;43.25
56270;BME280;42176;43.240;27.880;2023-02-14T08:22:00;101310.47;;;8.98;48.04
56270;BME280;42176;43.240;27.880;2023-02-14T08:24:26;101316.78;;;9.45;48.29
56270;BME280;42176;43.240;27.880;2023-02-14T08:26:51;101311.22;;;11.05;44.86
56270;BME280;42176;43.240;27.880;2023-02-14T08:29:17;101304.47;;;11.85;42.71
56270;BME280;42176;43.240;27.880;2023-02-14T08:31:43;101307.75;;;12.18;41.62
56270;BME280;42176;43.240;27.880;2023-02-14T08:34:09;101303.84;;;12.53;40.98
56270;BME280;42176;43.240;27.880;2023-02-14T08:36:35;101307.81;;;12.93;40.03
56270;BME280;42176;43.240;27.880;2023-02-14T08:39:02;101309.50;;;12.99;39.48
56270;BME280;42176;43.240;27.880;2023-02-14T08:41:28;101306.97;;;12.10;40.05
56270;BME280;42176;43.240;27.880;2023-02-14T08:43:53;101311.53;;;11.89;40.65
56270;BME280;42176;43.240;27.880;2023-02-14T08:46:19;101305.75;;;12.42;40.26
56270;BME280;42176;43.240;27.880;2023-02-14T08:48:45;101300.94;;;12.75;39.95
56270;BME280;42176;43.240;27.880;2023-02-14T08:51:12;101305.44;;;12.70;39.50
56270;BME280;42176;43.240;27.880;2023-02-14T08:53:39;101295.19;;;12.37;40.43
56270;BME280;42176;43.240;27.880;2023-02-14T08:56:10;101306.13;;;12.05;40.80
56270;BME280;42176;43.240;27.880;2023-02-14T08:58:37;101304.56;;;11.76;41.30
56270;BME280;42176;43.240;27.880;2023-02-14T09:01:15;101296.16;;;11.08;41.33
56270;BME280;42176;43.240;27.880;2023-02-14T09:03:42;101290.81;;;11.18;43.10
56270;BME280;42176;43.240;27.880;2023-02-14T09:06:10;101288.13;;;11.24;42.42
56270;BME280;42176;43.240;27.880;2023-02-14T09:08:37;101296.41;;;10.53;42.92
56270;BME280;42176;43.240;27.880;2023-02-14T09:11:14;101287.66;;;9.33;44.28
56270;BME280;42176;43.240;27.880;2023-02-14T09:13:41;101289.28;;;8.81;46.14
56270;BME280;42176;43.240;27.880;2023-02-14T09:16:08;101276.00;;;8.65;44.30
56270;BME280;42176;43.240;27.880;2023-02-14T09:18:34;101279.38;;;8.40;45.69
56270;BME280;42176;43.240;27.880;2023-02-14T09:21:00;101285.41;;;8.17;46.17
56270;BME280;42176;43.240;27.880;2023-02-14T09:23:26;101274.72;;;7.98;45.73
56270;BME280;42176;43.240;27.880;2023-02-14T09:25:59;101270.25;;;7.89;45.34
56270;BME280;42176;43.240;27.880;2023-02-14T09:28:25;101271.16;;;7.93;47.48
56270;BME280;42176;43.240;27.880;2023-02-14T09:30:50;101267.59;;;7.88;49.08
56270;BME280;42176;43.240;27.880;2023-02-14T09:33:16;101266.75;;;7.92;49.13
56270;BME280;42176;43.240;27.880;2023-02-14T09:35:41;101262.28;;;7.85;46.38
56270;BME280;42176;43.240;27.880;2023-02-14T09:38:25;101258.69;;;7.73;46.18
56270;BME280;42176;43.240;27.880;2023-02-14T09:40:51;101262.22;;;7.72;48.50
56270;BME280;42176;43.240;27.880;2023-02-14T09:46:01;101263.13;;;7.79;47.95
56270;BME280;42176;43.240;27.880;2023-02-14T09:48:31;101262.25;;;7.82;48.49
56270;BME280;42176;43.240;27.880;2023-02-14T09:51:04;101265.81;;;7.84;48.17
56270;BME280;42176;43.240;27.880;2023-02-14T09:53:34;101265.84;;;7.87;48.24
56270;BME280;42176;43.240;27.880;2023-02-14T09:56:11;101264.97;;;7.88;48.90
56270;BME280;42176;43.240;27.880;2023-02-14T10:01:21;101257.06;;;7.91;48.35
56270;BME280;42176;43.240;27.880;2023-02-14T10:11:21;101248.16;;;7.80;49.73
56270;BME280;42176;43.240;27.880;2023-02-14T10:14:10;101242.88;;;7.76;48.79
56270;BME280;42176;43.240;27.880;2023-02-14T10:16:42;101245.56;;;7.81;48.12
56270;BME280;42176;43.240;27.880;2023-02-14T10:19:25;101234.13;;;7.84;47.89
56270;BME280;42176;43.240;27.880;2023-02-14T10:22:03;101221.78;;;7.83;47.68
56270;BME280;42176;43.240;27.880;2023-02-14T10:24:36;101228.84;;;7.84;47.08
56270;BME280;42176;43.240;27.880;2023-02-14T10:29:54;101221.81;;;7.86;46.76
56270;BME280;42176;43.240;27.880;2023-02-14T10:32:48;101209.38;;;7.69;45.87
56270;BME280;42176;43.240;27.880;2023-02-14T10:48:39;101203.28;;;7.78;47.31
56270;BME280;42176;43.240;27.880;2023-02-14T10:51:18;101190.00;;;7.64;48.55
56270;BME280;42176;43.240;27.880;2023-02-14T10:58:56;101197.09;;;7.71;48.74
56270;BME280;42176;43.240;27.880;2023-02-14T11:01:23;101205.88;;;7.70;47.94
56270;BME280;42176;43.240;27.880;2023-02-14T11:03:55;101199.81;;;7.82;47.84
56270;BME280;42176;43.240;27.880;2023-02-14T11:06:28;101203.31;;;7.83;47.84
56270;BME280;42176;43.240;27.880;2023-02-14T11:08:53;101187.47;;;7.78;47.58
56270;BME280;42176;43.240;27.880;2023-02-14T11:13:50;101172.41;;;7.60;47.73
56270;BME280;42176;43.240;27.880;2023-02-14T11:16:32;101180.31;;;7.63;48.98
56270;BME280;42176;43.240;27.880;2023-02-14T11:21:44;101169.78;;;7.65;48.85
56270;BME280;42176;43.240;27.880;2023-02-14T11:27:14;101174.16;;;7.61;49.37
56270;BME280;42176;43.240;27.880;2023-02-14T11:29:45;101164.41;;;7.55;49.05
56270;BME280;42176;43.240;27.880;2023-02-14T11:32:19;101161.72;;;7.44;48.93
56270;BME280;42176;43.240;27.880;2023-02-14T11:35:00;101185.59;;;7.61;48.84
56270;BME280;42176;43.240;27.880;2023-02-14T11:37:31;101193.53;;;7.66;48.24
56270;BME280;42176;43.240;27.880;2023-02-14T11:40:00;101172.44;;;7.71;48.26
56270;BME280;42176;43.240;27.880;2023-02-14T11:42:37;101170.75;;;7.81;48.38
56270;BME280;42176;43.240;27.880;2023-02-14T11:45:05;101166.41;;;7.89;49.26
56270;BME280;42176;43.240;27.880;2023-02-14T11:47:33;101160.19;;;7.77;47.45
56270;BME280;42176;43.240;27.880;2023-02-14T11:50:02;101159.22;;;7.65;46.90
56270;BME280;42176;43.240;27.880;2023-02-14T11:52:31;101149.47;;;7.53;47.31
56270;BME280;42176;43.240;27.880;2023-02-14T11:54:58;101174.19;;;7.67;47.29
56270;BME280;42176;43.240;27.880;2023-02-14T11:57:29;101179.53;;;7.76;47.58
56270;BME280;42176;43.240;27.880;2023-02-14T11:59:58;101168.09;;;7.74;47.04
56270;BME280;42176;43.240;27.880;2023-02-14T12:05:05;101162.00;;;7.88;48.16
56270;BME280;42176;43.240;27.880;2023-02-14T12:07:34;101143.53;;;7.92;47.88
56270;BME280;42176;43.240;27.880;2023-02-14T12:12:35;101137.38;;;7.92;47.29
56270;BME280;42176;43.240;27.880;2023-02-14T12:15:22;101135.69;;;8.06;47.49
56270;BME280;42176;43.240;27.880;2023-02-14T12:18:01;101149.81;;;8.18;47.03
56270;BME280;42176;43.240;27.880;2023-02-14T12:24:10;101145.38;;;8.14;46.20
56270;BME280;42176;43.240;27.880;2023-02-14T12:26:48;101144.53;;;8.15;46.86
56270;BME280;42176;43.240;27.880;2023-02-14T12:31:58;101141.84;;;6.02;53.34
56270;BME280;42176;43.240;27.880;2023-02-14T12:34:25;101150.94;;;6.27;52.86
56270;BME280;42176;43.240;27.880;2023-02-14T12:37:16;101131.38;;;6.88;51.08
56270;BME280;42176;43.240;27.880;2023-02-14T12:42:53;101124.91;;;6.53;52.34
56270;BME280;42176;43.240;27.880;2023-02-14T12:48:22;101111.06;;;6.78;52.61
56270;BME280;42176;43.240;27.880;2023-02-14T12:51:22;101117.53;;;7.12;50.97
56270;BME280;42176;43.240;27.880;2023-02-14T13:01:38;101110.31;;;6.93;52.26
56270;BME280;42176;43.240;27.880;2023-02-14T13:15:08;101121.28;;;6.45;52.75
56270;BME280;42176;43.240;27.880;2023-02-14T13:23:19;101123.56;;;6.99;51.62
56270;BME280;42176;43.240;27.880;2023-02-14T13:26:30;101108.81;;;7.23;51.35
56270;BME280;42176;43.240;27.880;2023-02-14T13:29:03;101104.41;;;7.22;50.54
56270;BME280;42176;43.240;27.880;2023-02-14T13:31:30;101119.22;;;6.15;54.00
56270;BME280;42176;43.240;27.880;2023-02-14T13:34:00;101117.63;;;6.29;54.68
56270;BME280;42176;43.240;27.880;2023-02-14T13:36:27;101104.69;;;6.54;54.01
56270;BME280;42176;43.240;27.880;2023-02-14T13:38:55;101115.53;;;6.85;52.53
56270;BME280;42176;43.240;27.880;2023-02-14T13:41:23;101111.22;;;6.08;54.38
56270;BME280;42176;43.240;27.880;2023-02-14T13:43:57;101101.41;;;6.78;51.92
56270;BME280;42176;43.240;27.880;2023-02-14T13:49:27;101098.38;;;7.41;50.01
56270;BME280;42176;43.240;27.880;2023-02-14T13:51:56;101066.50;;;7.07;50.15
56270;BME280;42176;43.240;27.880;2023-02-14T13:54:43;101108.28;;;6.61;52.92
56270;BME280;42176;43.240;27.880;2023-02-14T13:57:30;101107.72;;;6.97;51.98
56270;BME280;42176;43.240;27.880;2023-02-14T14:02:55;101092.00;;;7.10;50.76
56270;BME280;42176;43.240;27.880;2023-02-14T14:10:57;101095.25;;;6.75;50.56
56270;BME280;42176;43.240;27.880;2023-02-14T14:22:02;101092.22;;;6.36;52.30
56270;BME280;42176;43.240;27.880;2023-02-14T14:24:36;101096.06;;;6.69;51.37
56270;BME280;42176;43.240;27.880;2023-02-14T14:27:19;101083.03;;;6.86;51.05
56270;BME280;42176;43.240;27.880;2023-02-14T14:30:06;101083.16;;;7.00;51.05
56270;BME280;42176;43.240;27.880;2023-02-14T14:32:39;101082.28;;;7.04;51.06
56270;BME280;42176;43.240;27.880;2023-02-14T14:37:47;101082.47;;;5.58;55.37
56270;BME280;42176;43.240;27.880;2023-02-14T14:40:34;101076.50;;;5.70;56.34
56270;BME280;42176;43.240;27.880;2023-02-14T14:43:08;101091.66;;;5.89;55.79
56270;BME280;42176;43.240;27.880;2023-02-14T14:45:36;101082.97;;;5.97;55.60
56270;BME280;42176;43.240;27.880;2023-02-14T14:48:08;101074.19;;;5.28;58.81
56270;BME280;42176;43.240;27.880;2023-02-14T14:50:35;101081.69;;;5.65;58.03
56270;BME280;42176;43.240;27.880;2023-02-14T14:53:05;101079.38;;;5.88;57.20
56270;BME280;42176;43.240;27.880;2023-02-14T14:55:35;101062.88;;;6.02;56.58
56270;BME280;42176;43.240;27.880;2023-02-14T14:58:06;101070.91;;;6.14;56.01
56270;BME280;42176;43.240;27.880;2023-02-14T15:00:51;101060.44;;;6.17;55.81
56270;BME280;42176;43.240;27.880;2023-02-14T15:03:20;101069.28;;;6.25;55.77
56270;BME280;42176;43.240;27.880;2023-02-14T15:05:49;101051.69;;;6.21;55.54
56270;BME280;42176;43.240;27.880;2023-02-14T15:08:27;101075.44;;;6.28;55.51
56270;BME280;42176;43.240;27.880;2023-02-14T15:11:00;101077.28;;;6.35;55.29
56270;BME280;42176;43.240;27.880;2023-02-14T15:17:20;101090.94;;;4.81;60.95